Mirny Airport
UERR : now visible

Airfield :











YOU CAN JOIN US ON...

 
LOGIN :

Register | Disclaimer

   EN    FR    IT 

 









Legend :    VFR   Marginal VFR   IFR   Intensive IFR   Very Intensive IFR
Visi :
Ceiling :
>= 8 km
>= 3000ft
5 to 8 km
1000 to 3000 ft
1500m to 5 km
500 to 1000 ft
800 to 1500m
200 to 500 ft
< 800m
< 200 ft
Symbols :   Thunderstorms  Fog  Heavy snow  Heavy precipitations  Wind > 20 kt






- Airport Elevation : 1156 ft
- IATA code : MJZ


UERR - Mirny

CURRENT METAR :
  • 110600Z VRB01MPS CAVOK M28/M31 Q1008 R25/490337 NOSIG RMK QFE725

EXPIRED METARs :
  • 110530Z 00000MPS CAVOK M27/M30 Q1008 R25/490337 NOSIG RMK QFE725
  • 110500Z 00000MPS CAVOK M26/M29 Q1008 R25/490337 NOSIG RMK QFE725
  • 110430Z VRB01MPS CAVOK M26/M29 Q1009 R25/490337 NOSIG RMK QFE725
  • 110400Z 00000MPS CAVOK M26/M29 Q1009 R25/490337 NOSIG RMK QFE725
  • 110330Z 00000MPS 9999 -SN NSC M27/M30 Q1009 R25/490337 NOSIG RMK QFE726

TAF TAF UERR
Valid from the 11 at 06:00 until the 12 at 06:00 UTC


110500Z 1106/1206 VRB01MPS 9999 FEW030 OVC100
TEMPO 1106/1112 4000 -SN SCT010 OVC100



MET'MAP, your aeronautical weather chart ! - Copyright ORBIFLY December 2007 - Disclaimer

ORBIFLY MET'MAP TEAM :

Programming & Development : Alexandra Zaïnal
Concept & original design : Baudouin d'Aumeries
Assistance for programming : Marc-Olivier Méhu
Technical & hardware support : Manuel Goepfert

Contact : metmap@orbifly.com




SOURCES & CREDITS :

   NOAA       Earth
Advisory